Time;durP1;ratioP1;P1;durP2;ratioP2;P2;SDS_P1;SDS_P2;PMS_P1;PMS_P2;Temp;Humidity;BMP_temperature;BMP_pressure;BME280_temperature;BME280_humidity;BME280_pressure;Samples;Min_cycle;Max_cycle;Signal;HPM_P1;HPM_P2
2022/04/16 00:01:05;;;;;;;3.17;1.90;;;;;;;10.54;82.05;97151.69;5076652;28;20200;-67
2022/04/16 00:03:31;;;;;;;3.90;2.17;;;;;;;10.42;81.29;97156.38;5075812;28;20199;-67
2022/04/16 00:05:58;;;;;;;4.80;2.23;;;;;;;10.19;82.33;97157.00;5076653;28;20290;-67
2022/04/16 00:08:26;;;;;;;5.03;2.33;;;;;;;10.09;83.10;97160.69;5076557;28;20224;-67
2022/04/16 00:10:53;;;;;;;4.47;2.23;;;;;;;10.09;82.76;97161.50;5076345;28;20214;-67
2022/04/16 00:13:21;;;;;;;3.00;1.90;;;;;;;10.04;83.21;97153.28;5076095;28;20618;-67
2022/04/16 00:15:49;;;;;;;5.83;2.70;;;;;;;9.95;83.83;97162.03;5076319;28;20265;-67
2022/04/16 00:18:18;;;;;;;4.57;2.37;;;;;;;10.28;82.97;97152.63;5076547;28;20231;-67
2022/04/16 00:20:45;;;;;;;5.30;2.47;;;;;;;10.00;82.29;97158.97;5076056;28;20196;-67
2022/04/16 00:23:12;;;;;;;4.73;2.17;;;;;;;9.76;83.20;97151.66;5076092;28;20742;-67
2022/04/16 00:25:38;;;;;;;2.93;1.83;;;;;;;9.94;82.43;97155.13;5076793;28;20200;-67
2022/04/16 00:28:08;;;;;;;6.83;2.60;;;;;;;10.01;82.38;97155.38;5075865;28;20243;-67
2022/04/16 00:30:37;;;;;;;7.70;2.80;;;;;;;10.03;82.22;97153.41;5075811;28;20321;-67
2022/04/16 00:33:04;;;;;;;4.73;2.43;;;;;;;9.98;81.56;97150.38;5075354;28;20200;-67
2022/04/16 00:35:32;;;;;;;4.30;2.37;;;;;;;10.19;81.86;97154.38;5080586;28;20784;-67
2022/04/16 00:37:58;;;;;;;4.00;2.30;;;;;;;9.90;81.49;97145.03;5080170;28;20232;-67
2022/04/16 00:40:25;;;;;;;4.30;2.33;;;;;;;9.96;81.61;97141.81;5079573;28;20269;-67
2022/04/16 00:42:52;;;;;;;5.13;2.70;;;;;;;9.97;81.17;97144.31;5079464;28;20767;-67
2022/04/16 00:45:18;;;;;;;6.30;2.70;;;;;;;9.89;80.83;97141.56;5079745;28;20302;-67
2022/04/16 00:47:45;;;;;;;4.43;2.00;;;;;;;9.94;80.66;97143.75;5079507;28;20227;-67
2022/04/16 00:50:12;;;;;;;4.87;2.30;;;;;;;9.84;79.91;97148.28;5080002;28;20196;-67
2022/04/16 00:52:43;;;;;;;5.97;2.10;;;;;;;9.98;80.01;97151.22;5079285;28;20830;-67
2022/04/16 00:55:10;;;;;;;3.13;2.10;;;;;;;9.68;80.72;97138.41;5080095;28;20204;-67
2022/04/16 00:57:38;;;;;;;5.90;1.93;;;;;;;9.87;80.52;97143.53;5079738;28;20239;-67
2022/04/16 01:00:06;;;;;;;3.77;2.20;;;;;;;9.83;80.25;97139.53;5079341;28;20242;-67
2022/04/16 01:02:34;;;;;;;3.87;2.00;;;;;;;9.96;79.59;97145.28;5078983;28;20208;-67
2022/04/16 01:05:01;;;;;;;4.43;1.80;;;;;;;9.78;80.41;97154.94;5079934;28;20605;-67
2022/04/16 01:07:27;;;;;;;4.53;2.20;;;;;;;9.73;79.32;97144.03;5079357;28;20212;-67
2022/04/16 01:09:55;;;;;;;3.60;2.13;;;;;;;10.14;79.05;97146.09;5079193;28;20199;-67
2022/04/16 01:12:22;;;;;;;4.20;2.20;;;;;;;9.94;78.68;97149.84;5079355;28;20195;-67
2022/04/16 01:14:49;;;;;;;4.17;2.10;;;;;;;9.88;78.55;97145.19;5080298;28;20196;-67
2022/04/16 01:17:16;;;;;;;3.90;2.23;;;;;;;9.86;79.30;97141.88;5079610;28;20215;-66
2022/04/16 01:19:42;;;;;;;4.70;2.37;;;;;;;9.72;80.00;97144.19;5079144;28;20227;-67
2022/04/16 01:22:12;;;;;;;8.97;2.40;;;;;;;9.73;80.61;97141.41;5078913;28;20315;-67
2022/04/16 01:24:43;;;;;;;4.53;2.40;;;;;;;9.44;81.34;97141.78;5078753;28;20286;-67
2022/04/16 01:27:10;;;;;;;3.40;1.90;;;;;;;9.50;80.94;97128.03;5079357;28;20220;-67
2022/04/16 01:29:36;;;;;;;4.67;2.57;;;;;;;9.22;80.80;97129.03;5079270;28;20223;-66
2022/04/16 01:32:03;;;;;;;3.40;2.07;;;;;;;9.34;79.06;97128.69;5079233;28;20206;-67
2022/04/16 01:34:30;;;;;;;5.60;1.93;;;;;;;9.42;79.75;97133.19;5078422;28;20215;-67
2022/04/16 01:37:02;;;;;;;4.07;2.50;;;;;;;9.20;80.75;97136.22;5079067;28;20228;-67
2022/04/16 01:39:29;;;;;;;7.53;2.10;;;;;;;9.10;81.46;97131.03;5078364;28;20204;-67
2022/04/16 01:41:57;;;;;;;4.87;2.33;;;;;;;9.24;81.63;97129.69;5078689;28;20204;-67
2022/04/16 01:44:23;;;;;;;4.93;2.10;;;;;;;9.20;80.61;97130.97;5079403;28;20290;-67
2022/04/16 01:46:50;;;;;;;4.53;2.00;;;;;;;8.94;79.36;97135.25;5078002;28;20211;-67
2022/04/16 01:49:17;;;;;;;7.20;2.03;;;;;;;8.98;78.97;97136.63;5078258;28;20203;-67
2022/04/16 01:51:44;;;;;;;2.77;1.90;;;;;;;8.89;80.16;97132.25;5078595;28;20200;-67
2022/04/16 01:54:10;;;;;;;5.47;2.60;;;;;;;8.84;81.58;97128.41;5078806;28;20200;-67
2022/04/16 01:56:37;;;;;;;4.30;2.10;;;;;;;8.74;82.78;97138.94;5078390;28;20211;-67
2022/04/16 01:59:08;;;;;;;5.07;2.50;;;;;;;9.07;82.87;97134.94;5078712;28;20715;-67
2022/04/16 02:01:34;;;;;;;6.03;2.80;;;;;;;9.04;82.36;97140.47;5078897;28;20578;-67
2022/04/16 02:04:01;;;;;;;3.60;1.80;;;;;;;8.95;81.75;97136.94;5077551;28;20204;-67
2022/04/16 02:06:28;;;;;;;4.00;2.10;;;;;;;8.91;81.70;97132.94;5077997;28;20223;-67
2022/04/16 02:08:54;;;;;;;3.87;2.27;;;;;;;9.10;81.31;97130.22;5078133;28;20220;-67
2022/04/16 02:11:20;;;;;;;3.80;2.27;;;;;;;9.24;80.96;97132.31;5078112;28;20195;-67
2022/04/16 02:13:47;;;;;;;4.13;2.07;;;;;;;9.34;80.08;97122.59;5077291;28;20311;-67
2022/04/16 02:16:15;;;;;;;3.60;2.00;;;;;;;9.21;80.04;97128.19;5078288;28;20719;-67
2022/04/16 02:18:41;;;;;;;3.00;1.77;;;;;;;9.13;79.82;97124.66;5077250;28;20250;-67
2022/04/16 02:21:10;;;;;;;2.67;1.97;;;;;;;9.05;79.48;97119.31;5078166;28;20446;-67
2022/04/16 02:23:36;;;;;;;3.57;2.10;;;;;;;9.07;80.55;97124.41;5078333;28;20623;-67
2022/04/16 02:26:07;;;;;;;5.50;2.03;;;;;;;9.13;80.23;97129.91;5078826;28;20208;-67
2022/04/16 02:28:34;;;;;;;4.77;2.33;;;;;;;9.07;80.44;97130.50;5074830;28;20305;-67
2022/04/16 02:31:01;;;;;;;2.97;1.97;;;;;;;9.10;79.94;97125.78;5077813;28;20691;-67
2022/04/16 02:33:30;;;;;;;3.87;2.03;;;;;;;9.22;79.17;97127.22;5077584;28;20200;-67
2022/04/16 02:35:57;;;;;;;3.67;2.03;;;;;;;9.10;79.26;97120.53;5077724;28;20771;-67
2022/04/16 02:38:23;;;;;;;3.80;2.23;;;;;;;8.86;79.87;97134.31;5077566;28;20227;-67
2022/04/16 02:40:50;;;;;;;3.17;1.83;;;;;;;8.83;79.12;97129.38;5077501;28;21107;-67
2022/04/16 02:43:16;;;;;;;6.87;2.10;;;;;;;8.76;79.58;97137.00;5077025;28;20207;-67
2022/04/16 02:48:27;;;;;;;4.80;2.37;;;;;;;8.65;81.42;97134.53;5077133;28;20231;-67
2022/04/16 02:50:54;;;;;;;6.50;1.90;;;;;;;8.86;82.08;97126.44;5077334;28;20206;-67
2022/04/16 02:53:21;;;;;;;5.03;2.30;;;;;;;8.52;82.27;97130.59;5076586;28;20199;-67
2022/04/16 02:55:48;;;;;;;3.60;1.83;;;;;;;8.55;79.92;97136.41;5078129;28;20200;-67
2022/04/16 02:58:14;;;;;;;4.83;2.17;;;;;;;8.59;80.02;97129.88;5076823;28;20930;-67
2022/04/16 03:00:41;;;;;;;2.17;1.60;;;;;;;8.32;80.61;97130.78;5076729;28;20223;-67
2022/04/16 03:03:09;;;;;;;4.73;2.20;;;;;;;8.22;81.82;97130.81;5076938;28;20211;-67
2022/04/16 03:05:35;;;;;;;4.10;2.10;;;;;;;8.10;83.84;97137.13;5077326;28;20206;-66
2022/04/16 03:08:05;;;;;;;5.10;2.10;;;;;;;8.09;86.02;97142.53;5076937;28;20215;-67
2022/04/16 03:10:32;;;;;;;6.33;2.17;;;;;;;8.03;85.48;97135.22;5077102;28;20281;-67
2022/04/16 03:12:59;;;;;;;3.77;1.93;;;;;;;8.11;83.97;97141.44;5076479;28;20215;-67
2022/04/16 03:18:24;;;;;;;3.17;1.63;;;;;;;8.30;81.97;97137.97;5014153;28;20226;-66
2022/04/16 03:20:50;;;;;;;3.50;1.67;;;;;;;8.33;80.80;97135.06;5013853;28;20217;-67
2022/04/16 03:23:18;;;;;;;3.20;1.77;;;;;;;8.34;80.79;97134.06;5040220;28;20206;-67
2022/04/16 03:25:45;;;;;;;4.33;2.20;;;;;;;8.08;81.01;97139.09;5077091;28;20659;-66
2022/04/16 03:28:12;;;;;;;2.97;1.50;;;;;;;8.22;80.55;97140.47;5077039;28;20224;-67
2022/04/16 03:30:39;;;;;;;4.13;1.83;;;;;;;7.98;82.55;97140.03;5076427;28;20689;-67
2022/04/16 03:33:06;;;;;;;5.83;1.23;;;;;;;8.07;78.11;97145.31;5076265;28;20202;-66
2022/04/16 03:35:34;;;;;;;2.83;1.80;;;;;;;8.10;78.64;97138.94;5076819;28;20840;-67
2022/04/16 03:38:00;;;;;;;3.27;2.20;;;;;;;7.96;80.52;97139.38;5076722;28;20219;-67
2022/04/16 03:40:28;;;;;;;3.23;1.70;;;;;;;8.31;80.04;97139.63;5076348;28;20215;-67
2022/04/16 03:42:58;;;;;;;9.17;1.90;;;;;;;8.27;80.49;97140.88;5076257;28;20206;-66
2022/04/16 03:45:27;;;;;;;2.63;1.33;;;;;;;8.07;81.53;97139.19;5076716;28;20573;-67
2022/04/16 03:47:55;;;;;;;15.10;2.03;;;;;;;8.22;82.51;97133.44;5076089;28;20228;-66
2022/04/16 03:50:23;;;;;;;6.63;2.57;;;;;;;8.12;83.57;97139.63;5076626;28;20192;-67
2022/04/16 03:52:51;;;;;;;4.23;2.00;;;;;;;8.29;82.79;97136.31;5076177;28;20202;-67
2022/04/16 04:00:49;;;;;;;5.03;1.97;;;;;;;8.07;81.37;97139.19;5076181;28;20281;-67
2022/04/16 04:03:16;;;;;;;2.87;1.80;;;;;;;8.24;81.92;97134.09;5075850;28;20658;-67
2022/04/16 04:05:45;;;;;;;2.97;1.80;;;;;;;8.34;82.70;97129.66;5077681;28;20593;-66
2022/04/16 04:08:12;;;;;;;5.13;2.43;;;;;;;8.30;83.64;97128.31;5076333;28;20216;-67
2022/04/16 04:10:39;;;;;;;3.53;1.80;;;;;;;8.17;85.35;97132.19;5079358;28;20196;-67
2022/04/16 04:13:07;;;;;;;3.83;1.93;;;;;;;8.17;85.66;97127.78;5080156;28;20206;-66
2022/04/16 04:15:33;;;;;;;3.57;2.20;;;;;;;8.10;85.16;97126.63;5081475;28;20196;-66
2022/04/16 04:18:01;;;;;;;4.83;2.97;;;;;;;8.23;84.34;97136.88;5079491;28;20231;-66
2022/04/16 04:20:28;;;;;;;6.23;2.33;;;;;;;8.23;82.64;97131.63;5079186;28;20505;-67
2022/04/16 04:22:54;;;;;;;3.93;1.90;;;;;;;8.24;81.93;97138.53;5079284;28;20211;-66
2022/04/16 04:25:21;;;;;;;4.20;2.00;;;;;;;8.26;82.83;97136.59;5079555;28;20200;-66
2022/04/16 04:27:48;;;;;;;4.43;2.47;;;;;;;8.09;84.08;97137.28;5079439;28;21061;-66
2022/04/16 04:30:16;;;;;;;4.37;2.03;;;;;;;8.35;84.23;97152.34;5080041;28;20614;-66
2022/04/16 04:32:43;;;;;;;5.37;1.90;;;;;;;8.18;84.18;97153.03;5079200;28;20195;-66
2022/04/16 04:35:10;;;;;;;4.10;2.40;;;;;;;8.43;84.31;97149.84;5080222;28;20207;-66
2022/04/16 04:37:37;;;;;;;3.30;2.20;;;;;;;8.48;84.54;97152.88;5079554;28;20220;-66
2022/04/16 04:40:05;;;;;;;5.37;2.13;;;;;;;8.65;83.88;97152.94;5079047;28;20470;-67
2022/04/16 04:42:33;;;;;;;3.60;1.97;;;;;;;8.75;84.19;97156.34;5078678;28;20206;-67
2022/04/16 04:45:00;;;;;;;5.13;2.30;;;;;;;8.76;84.35;97159.84;5079508;28;20294;-67
2022/04/16 04:47:28;;;;;;;6.60;2.37;;;;;;;9.02;83.72;97161.66;5079110;28;20731;-66
2022/04/16 04:49:54;;;;;;;4.50;2.30;;;;;;;8.57;85.42;97168.59;5079253;28;20200;-67
2022/04/16 04:52:21;;;;;;;5.57;2.57;;;;;;;8.78;85.90;97171.84;5078307;28;20211;-67
2022/04/16 04:54:48;;;;;;;5.03;2.27;;;;;;;8.91;85.06;97175.00;5079253;28;20211;-67
2022/04/16 04:57:14;;;;;;;4.03;2.47;;;;;;;9.12;85.13;97168.50;5079073;28;20281;-67
2022/04/16 04:59:41;;;;;;;5.20;2.60;;;;;;;9.13;83.50;97172.81;5078768;28;20732;-67
2022/04/16 05:02:07;;;;;;;3.97;2.30;;;;;;;9.21;83.49;97172.91;5079349;28;20200;-67
2022/04/16 05:04:35;;;;;;;5.23;2.97;;;;;;;9.27;83.90;97180.22;5079047;28;20200;-67
2022/04/16 05:07:03;;;;;;;5.43;3.17;;;;;;;9.05;84.85;97185.03;5079147;28;20226;-67
2022/04/16 05:09:29;;;;;;;5.20;2.70;;;;;;;9.15;84.63;97186.66;5079059;28;20204;-67
2022/04/16 05:11:56;;;;;;;7.63;3.10;;;;;;;9.29;84.11;97180.91;5078869;28;20199;-66
2022/04/16 05:14:22;;;;;;;8.33;3.17;;;;;;;9.29;84.55;97185.31;5078514;28;20206;-67
2022/04/16 05:16:49;;;;;;;5.23;2.60;;;;;;;9.35;84.58;97180.28;5079194;28;20200;-66
2022/04/16 05:19:16;;;;;;;4.50;2.60;;;;;;;9.38;84.13;97181.81;5079315;28;20210;-67
2022/04/16 05:21:44;;;;;;;7.20;3.17;;;;;;;9.72;83.05;97181.88;5078484;28;20216;-67
2022/04/16 05:24:11;;;;;;;4.83;2.67;;;;;;;9.74;82.21;97185.19;5079069;28;20209;-67
2022/04/16 05:26:39;;;;;;;5.57;2.90;;;;;;;10.00;81.43;97188.75;5078957;28;20215;-66
2022/04/16 05:29:06;;;;;;;6.77;3.17;;;;;;;9.83;81.05;97186.91;5079244;28;20252;-67
2022/04/16 05:31:33;;;;;;;6.23;3.37;;;;;;;9.86;80.86;97184.00;5078903;28;20206;-67
2022/04/16 05:36:47;;;;;;;6.67;3.03;;;;;;;10.28;81.48;97177.16;5079452;28;20230;-66
2022/04/16 05:39:13;;;;;;;6.07;2.80;;;;;;;9.90;82.31;97181.88;5078445;28;21135;-66
2022/04/16 05:41:40;;;;;;;6.47;2.97;;;;;;;10.13;81.96;97185.75;5078928;28;20224;-67
2022/04/16 05:44:06;;;;;;;7.10;3.33;;;;;;;10.19;81.12;97180.69;5078350;28;20204;-67
2022/04/16 05:46:33;;;;;;;6.90;3.30;;;;;;;10.27;80.02;97187.84;5078832;28;20196;-66
2022/04/16 05:48:59;;;;;;;7.43;3.57;;;;;;;10.29;79.55;97189.34;5079110;28;20211;-67
2022/04/16 05:51:26;;;;;;;5.90;2.90;;;;;;;10.40;80.26;97189.13;5078297;28;20207;-66
2022/04/16 05:53:55;;;;;;;5.33;2.80;;;;;;;10.38;80.72;97186.63;5077592;28;20219;-67
2022/04/16 05:56:22;;;;;;;6.50;3.27;;;;;;;10.32;80.39;97191.66;5079586;28;20200;-67
2022/04/16 05:58:48;;;;;;;5.30;2.60;;;;;;;10.36;79.77;97196.50;5078691;28;20215;-67
2022/04/16 06:01:15;;;;;;;6.57;3.10;;;;;;;10.34;79.83;97195.00;5077845;28;20223;-66
2022/04/16 06:03:41;;;;;;;8.53;3.20;;;;;;;10.38;78.37;97197.16;5078152;28;20196;-67
2022/04/16 06:06:08;;;;;;;6.27;2.70;;;;;;;10.60;78.16;97191.44;5079049;28;20215;-66
2022/04/16 06:08:35;;;;;;;6.67;3.17;;;;;;;10.37;79.35;97195.53;5077695;28;20751;-66
2022/04/16 06:11:04;;;;;;;5.23;2.87;;;;;;;10.58;79.38;97196.00;5078527;28;20207;-66
2022/04/16 06:13:31;;;;;;;6.93;2.80;;;;;;;10.11;82.64;97204.34;5077977;28;20227;-66
2022/04/16 06:15:58;;;;;;;7.23;3.43;;;;;;;10.29;80.33;97201.72;5077825;28;20202;-67
2022/04/16 06:18:24;;;;;;;5.83;2.73;;;;;;;10.45;79.43;97202.63;5077956;28;20235;-67
2022/04/16 06:20:50;;;;;;;6.50;3.30;;;;;;;10.55;78.96;97206.03;5078112;28;20220;-67
2022/04/16 06:23:20;;;;;;;6.07;2.80;;;;;;;10.56;81.10;97210.31;5077258;28;20743;-67
2022/04/16 06:25:46;;;;;;;7.23;3.17;;;;;;;10.44;81.45;97212.38;5078150;28;20203;-66
2022/04/16 06:28:14;;;;;;;8.23;3.90;;;;;;;10.36;82.74;97208.81;5078300;28;20220;-66
2022/04/16 06:30:41;;;;;;;6.27;3.27;;;;;;;10.21;82.10;97218.28;5077142;28;20215;-67
2022/04/16 06:33:07;;;;;;;5.17;2.97;;;;;;;10.35;80.30;97213.28;5076144;28;20211;-67
2022/04/16 06:35:34;;;;;;;5.57;2.97;;;;;;;10.42;80.37;97221.41;5077678;28;20214;-67
2022/04/16 06:38:00;;;;;;;7.10;3.13;;;;;;;10.45;81.25;97207.91;5077499;28;20247;-67
2022/04/16 06:40:27;;;;;;;5.53;2.80;;;;;;;10.56;79.60;97211.13;5076711;28;20234;-67
2022/04/16 06:42:53;;;;;;;6.37;3.30;;;;;;;10.37;80.91;97210.50;5075362;28;20215;-67
2022/04/16 06:45:21;;;;;;;6.83;2.87;;;;;;;10.72;79.47;97216.53;5076666;28;20203;-67
2022/04/16 06:47:48;;;;;;;6.10;3.13;;;;;;;10.62;80.15;97222.88;5077230;28;20227;-67
2022/04/16 06:50:14;;;;;;;6.90;3.33;;;;;;;10.61;81.08;97223.88;5077522;28;20200;-67
2022/04/16 06:52:41;;;;;;;8.97;3.70;;;;;;;10.70;79.17;97226.41;5076866;28;20208;-67
2022/04/16 06:55:07;;;;;;;6.63;3.20;;;;;;;10.91;79.32;97221.63;5077414;28;20699;-67
2022/04/16 06:57:34;;;;;;;7.20;3.43;;;;;;;10.75;80.59;97226.75;5077236;28;20227;-67
2022/04/16 07:00:00;;;;;;;5.80;2.80;;;;;;;10.98;79.57;97239.31;5077183;28;20805;-66
2022/04/16 07:02:28;;;;;;;7.60;2.93;;;;;;;10.90;79.60;97241.06;5076831;28;20629;-67
2022/04/16 07:04:55;;;;;;;6.83;3.47;;;;;;;10.99;77.30;97240.94;5077132;28;20191;-67
2022/04/16 07:07:21;;;;;;;7.30;3.23;;;;;;;11.03;76.81;97223.81;5076876;28;20235;-67
2022/04/16 07:09:48;;;;;;;6.13;3.00;;;;;;;11.00;76.72;97221.50;5077987;28;20203;-67
2022/04/16 07:12:14;;;;;;;6.40;3.27;;;;;;;11.02;77.67;97218.69;5076828;28;20196;-66
2022/04/16 07:14:41;;;;;;;4.93;2.80;;;;;;;11.24;76.63;97219.00;5076361;28;20207;-67
2022/04/16 07:17:08;;;;;;;5.90;3.40;;;;;;;10.93;78.25;97228.41;5076791;28;20224;-67
2022/04/16 07:19:36;;;;;;;6.83;3.07;;;;;;;11.02;80.46;97230.09;5076907;28;20200;-66
2022/04/16 07:22:04;;;;;;;7.83;3.57;;;;;;;10.81;81.86;97236.69;5075936;28;20216;-67
2022/04/16 07:24:31;;;;;;;5.87;2.80;;;;;;;10.63;83.08;97235.91;5075963;28;20245;-66
2022/04/16 07:26:58;;;;;;;5.77;3.37;;;;;;;10.80;80.33;97240.31;5075848;28;20483;-67
2022/04/16 07:29:26;;;;;;;6.73;3.50;;;;;;;10.83;80.80;97247.09;5076324;28;20224;-67
2022/04/16 07:31:53;;;;;;;8.33;3.47;;;;;;;10.72;79.30;97253.44;5076487;28;20196;-67
2022/04/16 07:34:20;;;;;;;7.03;3.03;;;;;;;10.77;79.88;97255.59;5075452;28;20200;-66
2022/04/16 07:36:48;;;;;;;5.77;3.00;;;;;;;10.60;81.45;97254.69;5076007;28;20204;-66
2022/04/16 07:39:15;;;;;;;7.73;3.53;;;;;;;10.72;79.43;97260.53;5076024;28;20200;-67
2022/04/16 07:41:42;;;;;;;10.60;4.03;;;;;;;10.83;79.08;97250.53;5076498;28;20231;-67
2022/04/16 07:44:09;;;;;;;7.23;3.80;;;;;;;10.59;79.30;97252.16;5075441;28;20250;-67
2022/04/16 07:46:36;;;;;;;9.00;3.57;;;;;;;10.80;79.87;97255.31;5076918;28;20579;-67
2022/04/16 07:49:04;;;;;;;8.67;3.87;;;;;;;10.98;79.88;97254.28;5076844;28;20211;-66
2022/04/16 07:51:30;;;;;;;9.50;3.57;;;;;;;10.59;80.40;97254.81;5077052;28;20664;-67
2022/04/16 07:53:58;;;;;;;9.37;3.97;;;;;;;10.99;79.27;97256.75;5075997;28;20200;-67
2022/04/16 07:56:26;;;;;;;8.87;3.90;;;;;;;11.14;77.80;97260.50;5077220;28;20203;-67
2022/04/16 07:58:53;;;;;;;8.03;3.57;;;;;;;10.65;79.62;97259.47;5076739;28;20254;-67
2022/04/16 08:01:20;;;;;;;8.33;3.70;;;;;;;10.64;80.73;97265.72;5076371;28;20637;-66
2022/04/16 08:03:47;;;;;;;7.73;3.47;;;;;;;10.55;81.76;97269.28;5075924;28;20204;-67
2022/04/16 08:06:13;;;;;;;8.87;4.27;;;;;;;10.43;83.51;97270.50;5075686;28;20215;-66
2022/04/16 08:08:40;;;;;;;8.83;3.83;;;;;;;10.81;80.30;97275.44;5075420;28;20227;-67
2022/04/16 08:11:07;;;;;;;10.53;4.30;;;;;;;10.80;82.88;97277.22;5075071;28;20199;-67
2022/04/16 08:13:34;;;;;;;11.03;3.97;;;;;;;10.68;80.45;97281.09;5074094;28;20250;-67
2022/04/16 08:16:00;;;;;;;7.27;3.93;;;;;;;10.83;78.92;97281.38;5075697;28;20199;-66
2022/04/16 08:18:27;;;;;;;9.60;4.13;;;;;;;10.97;79.28;97284.28;5075504;28;20238;-67
2022/04/16 08:20:53;;;;;;;10.07;3.90;;;;;;;10.86;78.69;97276.63;5074918;28;20500;-67
2022/04/16 08:23:20;;;;;;;6.93;3.40;;;;;;;10.63;80.60;97274.63;5075424;28;20200;-67
2022/04/16 08:25:46;;;;;;;9.10;4.23;;;;;;;10.77;82.52;97279.34;5076818;28;20207;-67
2022/04/16 08:28:14;;;;;;;9.40;4.13;;;;;;;11.30;78.78;97280.88;5075587;28;20224;-67
2022/04/16 08:30:41;;;;;;;8.47;3.90;;;;;;;10.94;78.26;97280.13;5075915;28;20580;-67
2022/04/16 08:33:13;;;;;;;12.43;4.40;;;;;;;11.22;78.80;97288.75;5075890;28;20643;-66
2022/04/16 08:35:42;;;;;;;7.20;3.60;;;;;;;11.14;79.34;97291.34;5076236;28;20200;-66
2022/04/16 08:38:10;;;;;;;7.53;3.47;;;;;;;11.07;80.79;97287.66;5076364;28;20288;-67
2022/04/16 08:40:36;;;;;;;7.63;3.80;;;;;;;11.27;78.47;97292.56;5076048;28;20590;-67
2022/04/16 08:43:05;;;;;;;8.73;4.00;;;;;;;11.18;78.56;97297.97;5075185;28;20782;-67
2022/04/16 08:45:37;;;;;;;7.83;4.00;;;;;;;11.35;76.71;97286.50;5076315;28;20281;-67
2022/04/16 08:48:04;;;;;;;7.60;3.77;;;;;;;11.07;78.91;97285.84;5075897;28;20864;-67
2022/04/16 08:50:30;;;;;;;9.70;3.47;;;;;;;10.86;78.59;97294.22;5075559;28;20200;-67
2022/04/16 08:52:58;;;;;;;8.27;3.63;;;;;;;11.19;78.28;97299.63;5075935;28;20212;-67
2022/04/16 08:55:25;;;;;;;6.87;3.60;;;;;;;11.19;77.96;97289.88;5077885;28;20680;-67
2022/04/16 08:57:53;;;;;;;11.40;4.27;;;;;;;11.25;77.26;97298.97;5079360;28;20219;-67
2022/04/16 09:00:21;;;;;;;8.40;3.70;;;;;;;11.20;79.28;97295.97;5079858;28;20199;-67
2022/04/16 09:02:53;;;;;;;9.73;4.13;;;;;;;11.57;79.12;97292.94;5079122;28;20224;-67
2022/04/16 09:05:20;;;;;;;6.67;3.30;;;;;;;11.31;79.72;97299.19;5079341;28;20223;-67
2022/04/16 09:07:47;;;;;;;7.33;3.83;;;;;;;11.51;78.53;97300.66;5079486;28;20220;-67
2022/04/16 09:10:14;;;;;;;8.60;3.80;;;;;;;11.16;78.67;97302.53;5079700;28;20226;-67
2022/04/16 09:12:41;;;;;;;6.97;3.33;;;;;;;11.22;79.39;97305.38;5078386;28;20208;-67
2022/04/16 09:15:09;;;;;;;7.27;3.40;;;;;;;11.63;79.53;97304.66;5079178;28;20204;-67
2022/04/16 09:17:35;;;;;;;11.13;4.50;;;;;;;11.47;78.11;97299.28;5079649;28;20220;-67
2022/04/16 09:20:04;;;;;;;7.53;3.17;;;;;;;11.45;78.63;97317.06;5078850;28;20559;-66
2022/04/16 09:22:32;;;;;;;7.53;3.70;;;;;;;11.39;75.67;97312.44;5078880;28;20227;-66
2022/04/16 09:24:58;;;;;;;8.20;3.27;;;;;;;10.93;78.21;97315.41;5079074;28;20747;-67
2022/04/16 09:27:25;;;;;;;7.40;3.37;;;;;;;11.16;76.23;97311.31;5078686;28;20231;-67
2022/04/16 09:29:53;;;;;;;7.63;3.70;;;;;;;11.38;76.43;97302.88;5078889;28;20684;-67
2022/04/16 09:32:24;;;;;;;7.63;3.03;;;;;;;11.81;74.05;97305.41;5078712;28;20199;-67
2022/04/16 09:34:51;;;;;;;6.50;3.23;;;;;;;11.65;75.80;97303.53;5078916;28;20204;-67
2022/04/16 09:37:19;;;;;;;8.43;3.60;;;;;;;11.66;76.55;97312.28;5079393;28;20223;-66
2022/04/16 09:39:45;;;;;;;7.73;3.53;;;;;;;11.54;77.89;97313.53;5078812;28;20679;-67
2022/04/16 09:42:12;;;;;;;5.83;2.97;;;;;;;11.13;76.83;97322.16;5078145;28;20277;-67
2022/04/16 09:44:38;;;;;;;8.27;3.03;;;;;;;11.67;76.07;97319.22;5078894;28;20200;-67
2022/04/16 09:47:05;;;;;;;7.87;3.53;;;;;;;11.55;73.57;97317.84;5078855;28;20223;-67
2022/04/16 09:49:34;;;;;;;7.77;3.80;;;;;;;11.73;74.55;97318.59;5078666;28;20212;-67
2022/04/16 09:52:02;;;;;;;6.60;3.27;;;;;;;11.77;72.76;97335.75;5078074;28;20199;-67
2022/04/16 09:54:32;;;;;;;5.43;3.27;;;;;;;11.67;74.87;97325.34;5078484;28;20233;-67
2022/04/16 09:57:02;;;;;;;7.70;3.73;;;;;;;11.84;74.58;97329.69;5078920;28;20231;-67
2022/04/16 09:59:36;;;;;;;6.63;3.47;;;;;;;11.80;74.85;97331.00;5078684;28;20200;-66
2022/04/16 10:02:03;;;;;;;6.17;2.83;;;;;;;11.82;73.77;97336.13;5078051;28;20251;-67
2022/04/16 10:04:31;;;;;;;5.97;3.27;;;;;;;11.79;72.96;97337.25;5079053;28;20196;-67
2022/04/16 10:06:58;;;;;;;7.00;3.33;;;;;;;11.74;72.46;97329.00;5079924;28;20232;-67
2022/04/16 10:09:26;;;;;;;5.43;2.77;;;;;;;11.30;74.81;97338.91;5079144;28;20211;-66
2022/04/16 10:14:47;;;;;;;7.07;3.50;;;;;;;11.91;74.64;97337.81;5078499;28;20978;-67
2022/04/16 10:17:29;;;;;;;5.90;3.27;;;;;;;11.62;74.15;97342.59;5078594;28;20235;-67
2022/04/16 10:20:07;;;;;;;5.43;2.53;;;;;;;11.77;72.51;97343.69;5076182;28;20199;-67
2022/04/16 10:22:34;;;;;;;6.70;3.40;;;;;;;11.64;72.17;97343.28;5077774;28;21015;-67
2022/04/16 10:25:01;;;;;;;8.17;3.27;;;;;;;11.77;70.65;97343.69;5078110;28;20199;-67
2022/04/16 10:27:30;;;;;;;7.83;3.33;;;;;;;12.11;71.20;97331.31;5078057;28;20234;-67
2022/04/16 10:30:00;;;;;;;4.27;2.57;;;;;;;11.85;75.57;97338.44;5078079;28;20226;-67
2022/04/16 10:32:37;;;;;;;5.10;2.70;;;;;;;12.01;72.18;97325.31;5077263;28;20199;-67
2022/04/16 10:35:05;;;;;;;5.53;3.23;;;;;;;12.14;74.78;97333.63;5078093;28;20233;-67
2022/04/16 10:37:38;;;;;;;5.53;3.13;;;;;;;12.52;73.29;97332.06;5076888;28;20231;-66
2022/04/16 10:40:15;;;;;;;6.77;3.50;;;;;;;12.77;71.24;97331.94;5077572;28;20339;-67
2022/04/16 10:42:48;;;;;;;5.83;3.00;;;;;;;12.86;71.63;97324.88;5076939;28;21032;-67
2022/04/16 10:45:14;;;;;;;10.33;3.50;;;;;;;12.62;71.43;97326.63;5078046;28;20214;-67
2022/04/16 10:47:42;;;;;;;9.80;4.60;;;;;;;13.01;70.74;97329.34;5077014;28;20333;-67
2022/04/16 10:50:13;;;;;;;6.83;3.93;;;;;;;13.36;70.39;97328.97;5077574;28;20237;-67
2022/04/16 10:52:39;;;;;;;6.07;3.10;;;;;;;12.89;68.48;97332.47;5076667;28;20204;-66
2022/04/16 10:55:06;;;;;;;6.13;2.97;;;;;;;12.92;67.24;97337.44;5077745;28;20688;-67
2022/04/16 10:57:33;;;;;;;4.90;2.80;;;;;;;13.06;66.46;97327.03;5077665;28;20224;-67
2022/04/16 11:00:12;;;;;;;5.13;2.60;;;;;;;13.21;67.49;97335.13;5077320;28;20208;-67
2022/04/16 11:02:38;;;;;;;7.97;3.13;;;;;;;13.01;72.25;97336.47;5077004;28;20216;-66
2022/04/16 11:05:07;;;;;;;5.80;2.60;;;;;;;13.31;66.96;97330.47;5077426;28;20210;-66
2022/04/16 11:07:35;;;;;;;7.90;2.90;;;;;;;13.38;72.45;97336.75;5077607;28;20273;-66
2022/04/16 11:10:03;;;;;;;6.90;3.00;;;;;;;13.38;66.52;97327.00;5077930;28;20211;-66
2022/04/16 11:12:30;;;;;;;7.13;3.00;;;;;;;14.21;62.21;97324.63;5076393;28;20192;-66
2022/04/16 11:14:56;;;;;;;5.67;3.20;;;;;;;14.01;68.59;97320.69;5076838;28;20208;-66
2022/04/16 11:17:25;;;;;;;6.10;3.20;;;;;;;14.36;64.20;97321.06;5078292;28;20598;-66
2022/04/16 11:19:59;;;;;;;5.43;3.10;;;;;;;14.18;64.36;97317.84;5076860;28;20256;-66
2022/04/16 11:22:26;;;;;;;4.13;2.60;;;;;;;13.83;62.72;97325.38;5075990;28;21113;-66
2022/04/16 11:24:52;;;;;;;4.55;2.65;;;;;;;13.74;63.50;97331.72;5077265;28;20204;-66
2022/04/16 11:35:55;;;;;;;7.65;3.17;;;;;;;14.14;64.05;97328.94;5077638;28;20268;-67
2022/04/16 11:38:26;;;;;;;6.97;3.40;;;;;;;14.46;60.25;97326.97;5076785;28;20219;-67
2022/04/16 11:40:53;;;;;;;10.82;2.72;;;;;;;13.17;64.15;97336.44;5076798;28;20200;-66
2022/04/16 11:43:22;;;;;;;10.43;4.30;;;;;;;12.55;68.72;97339.69;5076355;28;20575;-66
2022/04/16 11:45:49;;;;;;;9.73;4.00;;;;;;;12.57;68.97;97345.63;5076964;28;20203;-67
2022/04/16 11:48:17;;;;;;;6.93;3.60;;;;;;;13.13;67.09;97346.53;5075852;28;20231;-66
2022/04/16 11:50:45;;;;;;;8.70;3.70;;;;;;;12.48;67.89;97349.25;5077697;28;20195;-67
2022/04/16 11:53:12;;;;;;;7.43;3.87;;;;;;;12.77;66.59;97342.50;5076824;28;20192;-66
2022/04/16 11:55:45;;;;;;;8.83;4.07;;;;;;;12.69;69.09;97348.78;5077349;28;20277;-66
2022/04/16 11:58:12;;;;;;;8.87;4.00;;;;;;;12.66;69.24;97349.13;5078278;28;20220;-66
2022/04/16 12:00:48;;;;;;;7.60;4.00;;;;;;;12.74;67.37;97339.38;5077016;28;20208;-66
2022/04/16 12:03:15;;;;;;;8.67;4.23;;;;;;;12.48;68.89;97340.50;5076089;28;20223;-66